Rechercher aéroport 
image banner adimage banner adimage banner ad
image banner ad

CA18 - Sunrise Dusters

Situé à Robbins, United States

ICAO - CA18, IATA -

Données fournies par Airmate  

Information générale

Coordonnées: N38°52'20" W121°42'36"
Élévation : 24 feet MSL.
Variation magnétique : 16° East
Voir autres Aéroports à California

Données opérationnelles

Special qualification required
Heure actuelle UTC:
Heure actuelle locale:
Météo à : KSMF - Sacramento Intl ( 22 km )
METAR: KSMF 291553Z 13004KT 10SM SCT250 22/13 A2991 RMK AO2 SLP127 T02220133
TAF: KSMF 291132Z 2912/3012 17008KT P6SM SKC FM291500 21005KT 6SM FU FEW250 FM300000 19009KT P6SM SCT250 FM300600 16008KT P6SM BKN250
Voir NOTAMs / SUP AIP / TFR affectant cet aéroport [VIEW]
Fréquences de communication: [VIEW]

Pistes:

Identifiant RWYQFULongueur (ft)Largeur (ft)SurfaceLDA (ft)
14310035OTHER
32310035OTHER

Coordonnées de l'aéroport

Adresse: Robbins United States

Vue satellite de CA18